createdAt,value
2022-12-03T00:00:52.668Z,46.57
2022-12-03T00:01:52.655Z,46.73
2022-12-03T00:02:52.783Z,46.73
2022-12-03T00:03:52.752Z,46.89
2022-12-03T00:04:52.981Z,46.73
2022-12-03T00:05:52.643Z,46.41
2022-12-03T00:06:52.654Z,46.41
2022-12-03T00:07:52.735Z,46.73
2022-12-03T00:08:52.611Z,46.08
2022-12-03T00:09:52.643Z,47.05
2022-12-03T00:10:52.624Z,46.73
2022-12-03T00:11:53.600Z,46.25
2022-12-03T00:12:52.742Z,46.89
2022-12-03T00:13:52.619Z,46.25
2022-12-03T00:14:52.674Z,46.41
2022-12-03T00:15:52.711Z,46.25
2022-12-03T00:16:52.593Z,46.89
2022-12-03T00:17:52.581Z,48.02
2022-12-03T00:18:52.590Z,46.89
2022-12-03T00:19:52.555Z,46.73
2022-12-03T00:20:52.553Z,46.41
2022-12-03T00:21:52.550Z,46.73
2022-12-03T00:22:52.546Z,46.41
2022-12-03T00:23:52.548Z,46.41
2022-12-03T00:24:52.749Z,46.08
2022-12-03T00:25:52.695Z,46.08
2022-12-03T00:26:52.519Z,46.57
2022-12-03T00:27:52.509Z,46.41
2022-12-03T00:28:52.518Z,46.08
2022-12-03T00:29:52.520Z,46.08
2022-12-03T00:30:52.546Z,46.25
2022-12-03T00:31:52.508Z,46.25
2022-12-03T00:32:52.511Z,46.25
2022-12-03T00:33:52.462Z,46.25
2022-12-03T00:34:52.746Z,46.08
2022-12-03T00:35:52.456Z,46.57
2022-12-03T00:36:52.477Z,46.57
2022-12-03T00:37:52.454Z,46.41
2022-12-03T00:38:52.473Z,45.92
2022-12-03T00:39:52.443Z,46.89
2022-12-03T00:40:52.433Z,46.73
2022-12-03T00:41:52.458Z,46.08
2022-12-03T00:42:52.426Z,46.08
2022-12-03T00:43:52.420Z,46.25
2022-12-03T00:44:52.718Z,46.57
2022-12-03T00:45:52.443Z,46.41
2022-12-03T00:46:52.483Z,46.89
2022-12-03T00:47:52.394Z,47.21
2022-12-03T00:48:52.384Z,46.73
2022-12-03T00:49:52.387Z,46.73
2022-12-03T00:50:52.376Z,45.92
2022-12-03T00:51:53.407Z,45.76
2022-12-03T00:52:52.362Z,45.92
2022-12-03T00:53:52.352Z,46.41
2022-12-03T00:54:52.578Z,46.08
2022-12-03T00:55:52.343Z,46.25
2022-12-03T00:56:52.366Z,46.73
2022-12-03T00:57:52.331Z,46.25
2022-12-03T00:58:52.382Z,46.25
2022-12-03T00:59:52.323Z,46.41
2022-12-03T01:00:52.323Z,46.41
2022-12-03T01:01:52.384Z,46.08
2022-12-03T01:02:52.337Z,46.57
2022-12-03T01:03:52.296Z,46.57
2022-12-03T01:04:52.675Z,46.25
2022-12-03T01:05:52.306Z,47.05
2022-12-03T01:06:52.311Z,46.41
2022-12-03T01:07:52.348Z,47.05
2022-12-03T01:08:52.299Z,46.08
2022-12-03T01:09:52.308Z,46.73
2022-12-03T01:10:52.266Z,46.25
2022-12-03T01:11:52.248Z,46.08
2022-12-03T01:12:52.304Z,46.57
2022-12-03T01:13:52.266Z,46.57
2022-12-03T01:14:52.573Z,46.57
2022-12-03T01:15:52.232Z,46.41
2022-12-03T01:16:52.223Z,46.25
2022-12-03T01:17:52.245Z,46.25
2022-12-03T01:18:52.205Z,46.57
2022-12-03T01:19:52.223Z,46.41
2022-12-03T01:20:52.203Z,46.25
2022-12-03T01:21:52.195Z,46.08
2022-12-03T01:22:52.223Z,46.41
2022-12-03T01:23:52.173Z,46.25
2022-12-03T01:24:52.434Z,45.76
2022-12-03T01:25:52.188Z,46.25
2022-12-03T01:26:52.164Z,46.08
2022-12-03T01:27:52.172Z,46.25
2022-12-03T01:28:52.141Z,46.25
2022-12-03T01:29:52.167Z,46.25
2022-12-03T01:30:52.204Z,46.41
2022-12-03T01:31:52.132Z,46.08
2022-12-03T01:32:52.150Z,46.57
2022-12-03T01:33:52.148Z,46.25
2022-12-03T01:34:52.675Z,45.92
2022-12-03T01:35:52.102Z,46.41
2022-12-03T01:36:52.102Z,46.41
2022-12-03T01:37:52.097Z,46.41
2022-12-03T01:38:52.136Z,46.41
2022-12-03T01:39:52.148Z,46.25
2022-12-03T01:40:52.077Z,46.41
2022-12-03T01:41:52.085Z,46.41
2022-12-03T01:42:52.065Z,46.25
2022-12-03T01:43:52.070Z,46.25
2022-12-03T01:44:52.401Z,46.08
2022-12-03T01:45:52.057Z,46.25
2022-12-03T01:46:52.256Z,46.08
2022-12-03T01:47:52.025Z,46.57
2022-12-03T01:48:52.037Z,46.41
2022-12-03T01:49:52.074Z,46.73
2022-12-03T01:50:52.017Z,46.57
2022-12-03T01:51:51.994Z,46.41
2022-12-03T01:52:51.981Z,46.57
2022-12-03T01:53:52.004Z,46.57
2022-12-03T01:54:52.195Z,46.41
2022-12-03T01:55:51.969Z,46.57
2022-12-03T01:56:51.962Z,45.60
2022-12-03T01:57:51.965Z,46.25
2022-12-03T01:58:51.983Z,46.41
2022-12-03T01:59:51.969Z,46.57
2022-12-03T02:00:51.984Z,46.57
2022-12-03T02:01:52.012Z,46.73
2022-12-03T02:02:51.933Z,46.08
2022-12-03T02:03:52.036Z,46.73
2022-12-03T02:04:52.237Z,46.25
2022-12-03T02:05:51.957Z,46.57
2022-12-03T02:06:51.905Z,46.57
2022-12-03T02:07:51.950Z,46.57
2022-12-03T02:08:51.889Z,46.41
2022-12-03T02:09:51.904Z,46.73
2022-12-03T02:10:52.127Z,46.08
2022-12-03T02:11:51.886Z,47.21
2022-12-03T02:12:51.869Z,47.21
2022-12-03T02:13:51.890Z,46.25
2022-12-03T02:14:52.156Z,45.76
2022-12-03T02:15:51.897Z,45.92
2022-12-03T02:16:51.865Z,46.41
2022-12-03T02:17:51.829Z,46.08
2022-12-03T02:18:52.834Z,46.25
2022-12-03T02:19:51.820Z,46.41
2022-12-03T02:20:51.816Z,46.25
2022-12-03T02:21:51.864Z,46.57
2022-12-03T02:22:51.808Z,46.25
2022-12-03T02:23:51.786Z,46.41
2022-12-03T02:24:51.960Z,46.73
2022-12-03T02:25:51.805Z,46.25
2022-12-03T02:26:51.812Z,46.73
2022-12-03T02:27:51.777Z,46.41
2022-12-03T02:28:51.773Z,46.89
2022-12-03T02:29:51.758Z,45.92
2022-12-03T02:30:51.790Z,47.05
2022-12-03T02:31:51.808Z,46.57
2022-12-03T02:32:51.748Z,45.92
2022-12-03T02:33:51.734Z,46.57
2022-12-03T02:34:52.148Z,46.41
2022-12-03T02:35:51.764Z,46.57
2022-12-03T02:36:51.723Z,47.21
2022-12-03T02:37:51.711Z,46.41
2022-12-03T02:38:51.704Z,46.41
2022-12-03T02:39:51.768Z,46.57
2022-12-03T02:40:51.751Z,46.41
2022-12-03T02:41:51.698Z,46.41
2022-12-03T02:42:51.685Z,46.89
2022-12-03T02:43:51.699Z,47.21
2022-12-03T02:44:52.058Z,46.08
2022-12-03T02:45:51.714Z,45.60
2022-12-03T02:46:51.719Z,46.41
2022-12-03T02:47:51.650Z,46.41
2022-12-03T02:48:51.691Z,47.05
2022-12-03T02:49:51.666Z,47.53
2022-12-03T02:50:51.635Z,47.05
2022-12-03T02:51:51.675Z,46.73
2022-12-03T02:52:51.630Z,46.73
2022-12-03T02:53:51.629Z,46.41
2022-12-03T02:54:52.023Z,46.57
2022-12-03T02:55:51.623Z,46.25
2022-12-03T02:56:51.653Z,46.41
2022-12-03T02:57:51.606Z,46.73
2022-12-03T02:58:51.583Z,46.57
2022-12-03T02:59:51.579Z,46.25
2022-12-03T03:00:51.612Z,45.92
2022-12-03T03:01:51.677Z,46.41
2022-12-03T03:02:51.571Z,46.25
2022-12-03T03:03:51.582Z,46.89
2022-12-03T03:04:51.918Z,46.57
2022-12-03T03:05:51.564Z,46.57
2022-12-03T03:06:51.567Z,46.73
2022-12-03T03:07:51.614Z,46.41
2022-12-03T03:08:51.542Z,46.73
2022-12-03T03:09:51.539Z,46.41
2022-12-03T03:10:51.534Z,46.41
2022-12-03T03:11:51.550Z,46.73
2022-12-03T03:12:51.501Z,46.41
2022-12-03T03:13:51.560Z,46.41
2022-12-03T03:14:51.803Z,46.41
2022-12-03T03:15:51.492Z,46.73
2022-12-03T03:16:51.549Z,47.05
2022-12-03T03:17:51.472Z,46.41
2022-12-03T03:18:51.495Z,45.92
2022-12-03T03:19:51.510Z,46.08
2022-12-03T03:20:51.485Z,46.25
2022-12-03T03:21:51.472Z,46.41
2022-12-03T03:22:51.451Z,45.92
2022-12-03T03:23:51.457Z,46.08
2022-12-03T03:24:51.795Z,45.76
2022-12-03T03:25:51.443Z,46.08
2022-12-03T03:26:51.443Z,46.25
2022-12-03T03:27:51.434Z,46.57
2022-12-03T03:28:51.429Z,46.57
2022-12-03T03:29:51.414Z,46.89
2022-12-03T03:30:51.391Z,46.41
2022-12-03T03:31:51.495Z,46.57
2022-12-03T03:32:51.429Z,46.08
2022-12-03T03:33:51.379Z,46.89
2022-12-03T03:34:51.696Z,46.41
2022-12-03T03:35:51.392Z,46.57
2022-12-03T03:36:51.379Z,46.73
2022-12-03T03:37:51.354Z,46.41
2022-12-03T03:38:51.345Z,46.41
2022-12-03T03:39:51.358Z,46.73
2022-12-03T03:40:51.337Z,46.57
2022-12-03T03:41:51.361Z,46.57
2022-12-03T03:42:51.389Z,46.41
2022-12-03T03:43:51.350Z,46.73
2022-12-03T03:44:51.694Z,46.41
2022-12-03T03:45:51.354Z,46.41
2022-12-03T03:46:51.331Z,46.57
2022-12-03T03:47:51.296Z,46.08
2022-12-03T03:48:51.315Z,46.25
2022-12-03T03:49:51.309Z,46.25
2022-12-03T03:50:51.279Z,46.41
2022-12-03T03:51:51.277Z,46.73
2022-12-03T03:52:51.297Z,47.05
2022-12-03T03:53:51.281Z,46.57
2022-12-03T03:54:51.423Z,46.73
2022-12-03T03:55:51.251Z,46.41
2022-12-03T03:56:51.289Z,46.73
2022-12-03T03:57:51.256Z,46.57
2022-12-03T03:58:51.252Z,46.25
2022-12-03T03:59:51.256Z,46.41
2022-12-03T04:00:51.263Z,46.89
2022-12-03T04:01:51.231Z,46.89
2022-12-03T04:02:51.236Z,46.73
2022-12-03T04:03:51.275Z,46.25
2022-12-03T04:04:51.467Z,47.21
2022-12-03T04:05:51.212Z,47.70
2022-12-03T04:06:51.206Z,46.41
2022-12-03T04:07:51.229Z,46.25
2022-12-03T04:08:51.212Z,46.25
2022-12-03T04:09:51.172Z,46.25
2022-12-03T04:10:51.224Z,46.57
2022-12-03T04:11:51.171Z,46.57
2022-12-03T04:12:51.154Z,46.57
2022-12-03T04:13:51.144Z,47.37
2022-12-03T04:14:51.430Z,46.89
2022-12-03T04:15:51.147Z,46.73
2022-12-03T04:16:51.158Z,46.89
2022-12-03T04:17:51.151Z,46.41
2022-12-03T04:18:51.140Z,46.73
2022-12-03T04:19:51.164Z,46.73
2022-12-03T04:20:51.109Z,47.21
2022-12-03T04:21:51.110Z,46.57
2022-12-03T04:22:51.121Z,46.89
2022-12-03T04:23:51.090Z,46.41
2022-12-03T04:24:51.462Z,46.57
2022-12-03T04:25:51.095Z,47.37
2022-12-03T04:26:51.097Z,46.41
2022-12-03T04:27:51.098Z,46.73
2022-12-03T04:28:51.068Z,46.57
2022-12-03T04:29:51.074Z,46.73
2022-12-03T04:30:51.135Z,46.73
2022-12-03T04:31:51.062Z,46.57
2022-12-03T04:32:51.058Z,46.73
2022-12-03T04:33:51.059Z,47.21
2022-12-03T04:34:51.276Z,46.89
2022-12-03T04:35:51.050Z,46.89
2022-12-03T04:36:51.026Z,46.57
2022-12-03T04:37:51.014Z,46.41
2022-12-03T04:38:51.043Z,47.05
2022-12-03T04:39:51.027Z,46.41
2022-12-03T04:40:50.998Z,46.57
2022-12-03T04:41:50.992Z,46.57
2022-12-03T04:42:51.007Z,46.57
2022-12-03T04:43:50.999Z,47.05
2022-12-03T04:44:51.163Z,46.57
2022-12-03T04:45:51.041Z,46.41
2022-12-03T04:46:50.967Z,46.73
2022-12-03T04:47:51.075Z,46.41
2022-12-03T04:48:50.949Z,46.57
2022-12-03T04:49:50.965Z,46.41
2022-12-03T04:50:50.927Z,46.57
2022-12-03T04:51:50.923Z,46.41
2022-12-03T04:52:50.954Z,46.73
2022-12-03T04:53:50.962Z,47.21
2022-12-03T04:54:51.036Z,46.41
2022-12-03T04:55:50.913Z,46.89
2022-12-03T04:56:50.905Z,47.05
2022-12-03T04:57:50.898Z,46.57
2022-12-03T04:58:50.890Z,46.57
2022-12-03T04:59:50.931Z,47.05
2022-12-03T05:00:50.963Z,46.89
2022-12-03T05:01:50.959Z,47.53
2022-12-03T05:02:50.971Z,46.41
2022-12-03T05:03:50.883Z,46.57
2022-12-03T05:04:51.221Z,46.57
2022-12-03T05:05:50.876Z,46.57
2022-12-03T05:06:50.838Z,46.57
2022-12-03T05:07:51.907Z,46.73
2022-12-03T05:08:50.906Z,47.05
2022-12-03T05:09:50.898Z,47.05
2022-12-03T05:10:50.872Z,46.41
2022-12-03T05:11:50.853Z,46.89
2022-12-03T05:12:50.829Z,47.53
2022-12-03T05:13:50.808Z,47.05
2022-12-03T05:14:50.920Z,46.57
2022-12-03T05:15:50.803Z,46.89
2022-12-03T05:16:50.927Z,47.05
2022-12-03T05:17:50.804Z,46.89
2022-12-03T05:18:50.779Z,46.57
2022-12-03T05:19:50.773Z,46.57
2022-12-03T05:20:53.458Z,46.57
2022-12-03T05:21:51.811Z,46.73
2022-12-03T05:22:50.793Z,46.73
2022-12-03T05:23:50.746Z,46.57
2022-12-03T05:24:50.989Z,45.92
2022-12-03T05:25:50.747Z,46.89
2022-12-03T05:26:50.730Z,46.89
2022-12-03T05:27:50.849Z,46.73
2022-12-03T05:28:50.723Z,46.89
2022-12-03T05:29:50.725Z,46.57
2022-12-03T05:30:50.760Z,47.05
2022-12-03T05:31:50.707Z,47.05
2022-12-03T05:32:50.747Z,46.57
2022-12-03T05:33:50.689Z,46.73
2022-12-03T05:34:50.991Z,47.53
2022-12-03T05:35:50.733Z,46.73
2022-12-03T05:36:50.681Z,46.89
2022-12-03T05:37:50.698Z,46.57
2022-12-03T05:38:50.683Z,47.37
2022-12-03T05:39:50.726Z,46.25
2022-12-03T05:40:50.662Z,46.25
2022-12-03T05:41:50.652Z,47.21
2022-12-03T05:42:50.681Z,47.70
2022-12-03T05:43:50.658Z,46.73
2022-12-03T05:44:51.905Z,46.08
2022-12-03T05:45:50.665Z,47.37
2022-12-03T05:46:50.614Z,47.21
2022-12-03T05:47:50.610Z,47.05
2022-12-03T05:48:50.665Z,47.21
2022-12-03T05:49:50.587Z,46.73
2022-12-03T05:50:50.603Z,46.57
2022-12-03T05:51:55.113Z,46.73
2022-12-03T05:52:52.609Z,47.21
2022-12-03T05:53:50.594Z,46.41
2022-12-03T05:54:50.661Z,46.73
2022-12-03T05:55:50.587Z,46.57
2022-12-03T05:56:50.563Z,46.89
2022-12-03T05:57:50.563Z,46.57
2022-12-03T05:58:50.554Z,46.57
2022-12-03T05:59:50.538Z,47.05
2022-12-03T06:00:50.580Z,47.05
2022-12-03T06:01:50.532Z,46.73
2022-12-03T06:02:50.598Z,47.21
2022-12-03T06:03:50.667Z,47.05
2022-12-03T06:04:50.720Z,46.57
2022-12-03T06:05:50.567Z,46.41
2022-12-03T06:06:51.502Z,47.21
2022-12-03T06:07:50.550Z,46.25
2022-12-03T06:08:50.498Z,46.89
2022-12-03T06:09:50.496Z,47.05
2022-12-03T06:10:50.495Z,46.73
2022-12-03T06:11:50.473Z,46.89
2022-12-03T06:12:50.467Z,46.73
2022-12-03T06:13:50.468Z,46.73
2022-12-03T06:14:50.531Z,46.25
2022-12-03T06:15:50.554Z,46.73
2022-12-03T06:16:51.433Z,47.05
2022-12-03T06:17:50.432Z,47.70
2022-12-03T06:18:50.426Z,46.73
2022-12-03T06:19:50.418Z,47.05
2022-12-03T06:20:50.580Z,47.37
2022-12-03T06:21:50.421Z,46.73
2022-12-03T06:22:50.433Z,47.05
2022-12-03T06:23:50.406Z,46.57
2022-12-03T06:24:50.537Z,47.05
2022-12-03T06:25:50.400Z,47.21
2022-12-03T06:26:50.383Z,47.70
2022-12-03T06:27:50.412Z,48.50
2022-12-03T06:28:50.395Z,48.02
2022-12-03T06:29:50.362Z,47.21
2022-12-03T06:30:50.511Z,46.89
2022-12-03T06:31:50.367Z,47.05
2022-12-03T06:32:50.390Z,47.05
2022-12-03T06:33:50.336Z,47.21
2022-12-03T06:34:50.369Z,47.21
2022-12-03T06:35:50.344Z,47.05
2022-12-03T06:36:50.315Z,47.05
2022-12-03T06:37:50.373Z,47.21
2022-12-03T06:38:50.327Z,47.21
2022-12-03T06:39:50.312Z,47.53
2022-12-03T06:40:50.372Z,47.21
2022-12-03T06:41:50.334Z,47.37
2022-12-03T06:42:50.301Z,47.53
2022-12-03T06:43:50.293Z,47.53
2022-12-03T06:44:50.313Z,46.41
2022-12-03T06:45:50.281Z,47.05
2022-12-03T06:46:50.340Z,47.70
2022-12-03T06:47:50.272Z,46.89
2022-12-03T06:48:50.322Z,46.89
2022-12-03T06:49:50.235Z,47.86
2022-12-03T06:50:50.283Z,48.18
2022-12-03T06:51:50.231Z,46.89
2022-12-03T06:52:50.229Z,47.21
2022-12-03T06:53:50.251Z,46.89
2022-12-03T06:54:50.266Z,47.21
2022-12-03T06:55:50.220Z,47.21
2022-12-03T06:56:50.197Z,47.21
2022-12-03T06:57:50.218Z,47.21
2022-12-03T06:58:50.226Z,47.21
2022-12-03T06:59:50.200Z,46.89
2022-12-03T07:00:50.212Z,46.89
2022-12-03T07:01:50.247Z,47.21
2022-12-03T07:02:50.215Z,50.11
2022-12-03T07:03:50.183Z,51.08
2022-12-03T07:04:50.198Z,47.05
2022-12-03T07:05:50.157Z,46.57
2022-12-03T07:06:50.194Z,46.57
2022-12-03T07:07:50.208Z,47.37
2022-12-03T07:08:50.132Z,47.21
2022-12-03T07:09:50.158Z,46.89
2022-12-03T07:10:51.129Z,47.37
2022-12-03T07:11:50.128Z,47.53
2022-12-03T07:12:50.123Z,47.05
2022-12-03T07:13:50.095Z,47.53
2022-12-03T07:14:50.114Z,47.53
2022-12-03T07:15:50.118Z,47.70
2022-12-03T07:16:50.096Z,48.34
2022-12-03T07:17:51.109Z,47.70
2022-12-03T07:18:51.113Z,47.05
2022-12-03T07:19:50.070Z,46.89
2022-12-03T07:20:50.067Z,46.89
2022-12-03T07:21:50.054Z,46.57
2022-12-03T07:22:50.105Z,46.89
2022-12-03T07:23:50.041Z,46.73
2022-12-03T07:24:50.061Z,46.41
2022-12-03T07:25:50.044Z,47.21
2022-12-03T07:26:50.061Z,48.50
2022-12-03T07:27:50.033Z,47.37
2022-12-03T07:28:50.024Z,46.57
2022-12-03T07:29:50.007Z,46.57
2022-12-03T07:30:50.000Z,47.70
2022-12-03T07:31:50.048Z,47.05
2022-12-03T07:32:50.008Z,46.73
2022-12-03T07:33:50.007Z,47.21
2022-12-03T07:34:49.969Z,47.37
2022-12-03T07:35:49.978Z,47.70
2022-12-03T07:36:50.112Z,46.89
2022-12-03T07:37:49.972Z,47.05
2022-12-03T07:38:49.997Z,46.89
2022-12-03T07:39:49.960Z,47.21
2022-12-03T07:40:49.950Z,48.34
2022-12-03T07:41:49.949Z,47.53
2022-12-03T07:42:49.978Z,47.37
2022-12-03T07:43:49.921Z,47.37
2022-12-03T07:44:49.953Z,46.57
2022-12-03T07:45:49.918Z,47.21
2022-12-03T07:46:49.971Z,47.70
2022-12-03T07:47:49.915Z,48.18
2022-12-03T07:48:49.928Z,47.70
2022-12-03T07:49:49.953Z,47.70
2022-12-03T07:50:49.920Z,48.02
2022-12-03T07:51:49.896Z,47.70
2022-12-03T07:52:49.880Z,48.18
2022-12-03T07:53:49.879Z,47.86
2022-12-03T07:54:49.893Z,47.21
2022-12-03T07:55:49.909Z,48.02
2022-12-03T07:56:49.883Z,48.50
2022-12-03T07:57:49.849Z,48.34
2022-12-03T07:58:49.834Z,47.70
2022-12-03T07:59:49.835Z,48.82
2022-12-03T08:00:49.936Z,48.18
2022-12-03T08:01:49.899Z,46.73
2022-12-03T08:02:50.184Z,47.05
2022-12-03T08:03:49.823Z,45.92
2022-12-03T08:04:49.823Z,46.89
2022-12-03T08:05:49.842Z,47.37
2022-12-03T08:06:49.841Z,48.50
2022-12-03T08:07:49.879Z,48.02
2022-12-03T08:08:49.777Z,48.02
2022-12-03T08:09:49.766Z,47.37
2022-12-03T08:10:49.795Z,46.57
2022-12-03T08:11:49.806Z,47.05
2022-12-03T08:12:49.800Z,46.89
2022-12-03T08:13:49.770Z,47.70
2022-12-03T08:14:49.765Z,47.70
2022-12-03T08:15:49.736Z,48.02
2022-12-03T08:16:49.812Z,48.02
2022-12-03T08:17:49.764Z,47.70
2022-12-03T08:18:49.716Z,47.53
2022-12-03T08:19:49.706Z,47.53
2022-12-03T08:20:49.707Z,48.66
2022-12-03T08:21:49.715Z,49.79
2022-12-03T08:22:49.822Z,50.92
2022-12-03T08:23:49.696Z,48.82
2022-12-03T08:24:49.697Z,47.05
2022-12-03T08:25:49.818Z,48.66
2022-12-03T08:26:49.689Z,48.66
2022-12-03T08:27:49.669Z,49.31
2022-12-03T08:28:49.693Z,51.08
2022-12-03T08:29:49.696Z,52.37
2022-12-03T08:30:49.665Z,51.72
2022-12-03T08:31:49.699Z,49.31
2022-12-03T08:32:49.677Z,48.66
2022-12-03T08:33:49.681Z,47.21
2022-12-03T08:34:49.642Z,47.37
2022-12-03T08:35:49.610Z,47.53
2022-12-03T08:36:49.623Z,48.82
2022-12-03T08:37:49.607Z,48.18
2022-12-03T08:38:50.709Z,48.66
2022-12-03T08:39:49.591Z,48.66
2022-12-03T08:40:49.640Z,49.31
2022-12-03T08:41:49.585Z,49.31
2022-12-03T08:42:49.583Z,50.43
2022-12-03T08:43:49.565Z,49.31
2022-12-03T08:44:49.553Z,49.63
2022-12-03T08:45:49.742Z,48.82
2022-12-03T08:46:49.583Z,48.66
2022-12-03T08:47:49.540Z,48.66
2022-12-03T08:48:49.791Z,48.50
2022-12-03T08:49:49.614Z,48.50
2022-12-03T08:50:49.552Z,49.63
2022-12-03T08:51:49.548Z,49.95
2022-12-03T08:52:49.531Z,47.70
2022-12-03T08:53:49.518Z,49.15
2022-12-03T08:54:49.527Z,48.66
2022-12-03T08:55:49.508Z,48.66
2022-12-03T08:56:49.550Z,48.66
2022-12-03T08:57:49.481Z,48.18
2022-12-03T08:58:49.519Z,47.37
2022-12-03T08:59:49.478Z,47.70
2022-12-03T09:00:49.517Z,48.02
2022-12-03T09:01:49.509Z,47.70
2022-12-03T09:02:49.468Z,48.34
2022-12-03T09:03:49.554Z,48.82
2022-12-03T09:04:49.460Z,47.70
2022-12-03T09:05:49.449Z,48.02
2022-12-03T09:06:49.494Z,49.31
2022-12-03T09:07:49.512Z,48.34
2022-12-03T09:08:49.436Z,47.53
2022-12-03T09:09:49.525Z,47.05
2022-12-03T09:10:49.417Z,49.15
2022-12-03T09:11:49.457Z,48.66
2022-12-03T09:12:49.404Z,48.02
2022-12-03T09:13:49.391Z,48.18
2022-12-03T09:14:49.482Z,48.18
2022-12-03T09:15:49.436Z,47.53
2022-12-03T09:16:49.463Z,48.02
2022-12-03T09:17:49.428Z,48.50
2022-12-03T09:18:49.371Z,47.86
2022-12-03T09:19:49.375Z,47.70
2022-12-03T09:20:49.471Z,47.70
2022-12-03T09:21:49.338Z,48.18
2022-12-03T09:22:49.434Z,47.70
2022-12-03T09:23:49.323Z,47.86
2022-12-03T09:24:49.356Z,47.70
2022-12-03T09:25:49.320Z,48.02
2022-12-03T09:26:49.348Z,48.82
2022-12-03T09:27:49.352Z,47.70
2022-12-03T09:28:49.313Z,47.70
2022-12-03T09:29:49.323Z,47.21
2022-12-03T09:30:49.305Z,50.60
2022-12-03T09:31:49.356Z,48.66
2022-12-03T09:32:49.347Z,47.21
2022-12-03T09:33:49.310Z,47.37
2022-12-03T09:34:49.295Z,48.18
2022-12-03T09:35:49.257Z,48.34
2022-12-03T09:36:49.248Z,47.70
2022-12-03T09:37:49.276Z,48.18
2022-12-03T09:38:49.247Z,48.18
2022-12-03T09:39:49.383Z,50.43
2022-12-03T09:40:49.235Z,48.66
2022-12-03T09:41:49.279Z,48.18
2022-12-03T09:42:49.201Z,48.18
2022-12-03T09:44:03.821Z,47.70
2022-12-03T09:44:51.593Z,47.70
2022-12-03T09:45:49.340Z,47.21
2022-12-03T09:46:49.213Z,47.21
2022-12-03T09:47:49.200Z,48.50
2022-12-03T09:48:49.212Z,47.37
2022-12-03T09:49:49.223Z,47.21
2022-12-03T09:50:49.191Z,47.05
2022-12-03T09:51:49.268Z,47.70
2022-12-03T09:52:49.161Z,47.21
2022-12-03T09:53:49.185Z,47.53
2022-12-03T09:54:49.149Z,48.34
2022-12-03T09:55:49.152Z,48.18
2022-12-03T09:56:49.225Z,47.70
2022-12-03T09:57:49.160Z,47.53
2022-12-03T09:58:49.113Z,47.37
2022-12-03T09:59:49.144Z,47.21
2022-12-03T10:00:49.142Z,47.70
2022-12-03T10:01:49.247Z,48.02
2022-12-03T10:02:49.115Z,52.53
2022-12-03T10:03:49.111Z,54.46
2022-12-03T10:04:49.205Z,47.70
2022-12-03T10:05:49.116Z,47.37
2022-12-03T10:06:49.091Z,48.18
2022-12-03T10:07:49.173Z,48.02
2022-12-03T10:08:49.054Z,49.15
2022-12-03T10:09:49.050Z,47.86
2022-12-03T10:10:50.069Z,47.70
2022-12-03T10:11:49.048Z,48.98
2022-12-03T10:12:49.065Z,48.98
2022-12-03T10:13:49.040Z,47.05
2022-12-03T10:14:49.047Z,47.21
2022-12-03T10:15:49.062Z,47.70
2022-12-03T10:16:49.093Z,47.70
2022-12-03T10:17:49.032Z,47.37
2022-12-03T10:18:49.117Z,47.21
2022-12-03T10:19:49.024Z,47.70
2022-12-03T10:20:49.009Z,47.53
2022-12-03T10:21:49.035Z,47.21
2022-12-03T10:22:48.987Z,47.05
2022-12-03T10:23:54.902Z,48.02
2022-12-03T10:24:50.090Z,47.37
2022-12-03T10:25:48.967Z,47.05
2022-12-03T10:26:49.048Z,47.70
2022-12-03T10:27:48.992Z,47.21
2022-12-03T10:28:48.973Z,47.21
2022-12-03T10:29:48.927Z,47.21
2022-12-03T10:30:48.964Z,47.70
2022-12-03T10:31:49.171Z,47.53
2022-12-03T10:32:48.979Z,47.70
2022-12-03T10:33:48.928Z,47.37
2022-12-03T10:34:48.909Z,46.89
2022-12-03T10:35:48.932Z,47.70
2022-12-03T10:36:48.921Z,48.02
2022-12-03T10:37:48.931Z,47.53
2022-12-03T10:38:48.884Z,47.37
2022-12-03T10:39:52.464Z,46.73
2022-12-03T10:40:50.946Z,48.02
2022-12-03T10:41:48.879Z,47.53
2022-12-03T10:42:48.903Z,47.37
2022-12-03T10:43:48.881Z,48.18
2022-12-03T10:44:48.867Z,48.18
2022-12-03T10:45:48.891Z,48.18
2022-12-03T10:46:48.985Z,48.50
2022-12-03T10:47:48.935Z,49.31
2022-12-03T10:48:48.832Z,49.31
2022-12-03T10:49:48.818Z,47.86
2022-12-03T10:50:48.826Z,49.15
2022-12-03T10:51:48.814Z,46.89
2022-12-03T10:52:48.865Z,47.21
2022-12-03T10:53:48.809Z,47.70
2022-12-03T10:54:48.840Z,47.21
2022-12-03T10:55:48.825Z,46.89
2022-12-03T10:56:48.816Z,47.86
2022-12-03T10:57:48.815Z,46.57
2022-12-03T10:58:48.798Z,47.70
2022-12-03T10:59:48.799Z,47.05
2022-12-03T11:00:48.796Z,47.70
2022-12-03T11:01:48.813Z,47.37
2022-12-03T11:02:56.104Z,47.70
2022-12-03T11:03:50.842Z,47.53
2022-12-03T11:04:48.766Z,47.70
2022-12-03T11:05:48.755Z,48.18
2022-12-03T11:06:48.770Z,48.02
2022-12-03T11:07:48.772Z,47.70
2022-12-03T11:08:54.630Z,48.02
2022-12-03T11:09:50.949Z,48.98
2022-12-03T11:10:48.743Z,47.05
2022-12-03T11:11:49.792Z,49.15
2022-12-03T11:12:48.705Z,48.18
2022-12-03T11:13:48.702Z,47.70
2022-12-03T11:14:48.695Z,46.89
2022-12-03T11:15:48.816Z,47.21
2022-12-03T11:16:48.684Z,47.37
2022-12-03T11:17:48.712Z,47.53
2022-12-03T11:18:48.717Z,47.37
2022-12-03T11:19:48.692Z,48.18
2022-12-03T11:20:48.824Z,47.21
2022-12-03T11:21:48.661Z,47.53
2022-12-03T11:22:48.643Z,47.53
2022-12-03T11:23:48.641Z,46.89
2022-12-03T11:24:48.749Z,47.21
2022-12-03T11:25:48.673Z,48.34
2022-12-03T11:26:48.714Z,47.37
2022-12-03T11:27:48.597Z,47.21
2022-12-03T11:28:49.650Z,48.02
2022-12-03T11:29:48.653Z,48.02
2022-12-03T11:30:48.691Z,47.70
2022-12-03T11:31:48.691Z,47.70
2022-12-03T11:32:48.600Z,47.86
2022-12-03T11:33:48.594Z,47.53
2022-12-03T11:34:48.639Z,48.66
2022-12-03T11:35:48.639Z,46.73
2022-12-03T11:37:01.489Z,47.21
2022-12-03T11:37:50.568Z,46.89
2022-12-03T11:38:52.867Z,48.50
2022-12-03T11:39:50.649Z,48.98
2022-12-03T11:40:48.543Z,48.18
2022-12-03T11:41:48.594Z,48.82
2022-12-03T11:42:48.557Z,48.02
2022-12-03T11:43:48.540Z,47.05
2022-12-03T11:44:48.506Z,47.37
2022-12-03T11:45:48.499Z,47.21
2022-12-03T11:46:48.595Z,47.86
2022-12-03T11:47:48.527Z,47.53
2022-12-03T11:48:48.485Z,46.89
2022-12-03T11:49:48.469Z,47.53
2022-12-03T11:50:48.613Z,48.02
2022-12-03T11:51:48.521Z,47.37
2022-12-03T11:52:48.517Z,48.02
2022-12-03T11:53:48.490Z,47.21
2022-12-03T11:54:48.460Z,47.53
2022-12-03T11:55:48.494Z,48.02
2022-12-03T11:56:48.562Z,48.34
2022-12-03T11:57:48.451Z,49.15
2022-12-03T11:58:48.458Z,49.95
2022-12-03T11:59:48.414Z,47.53
2022-12-03T12:00:48.540Z,48.66
2022-12-03T12:01:48.408Z,49.79
2022-12-03T12:02:48.466Z,48.82
2022-12-03T12:03:48.565Z,48.02
2022-12-03T12:04:48.396Z,47.70
2022-12-03T12:05:48.375Z,49.47
2022-12-03T12:06:53.143Z,47.70
2022-12-03T12:07:50.573Z,48.18
2022-12-03T12:08:48.375Z,47.21
2022-12-03T12:09:48.368Z,47.53
2022-12-03T12:10:48.333Z,49.63
2022-12-03T12:11:48.358Z,48.02
2022-12-03T12:12:54.684Z,48.66
2022-12-03T12:13:50.357Z,49.95
2022-12-03T12:14:48.371Z,49.47
2022-12-03T12:15:48.359Z,47.86
2022-12-03T12:16:48.483Z,48.02
2022-12-03T12:17:48.343Z,48.66
2022-12-03T12:18:51.150Z,48.18
2022-12-03T12:19:54.371Z,47.86
2022-12-03T12:20:49.342Z,49.15
2022-12-03T12:21:48.337Z,49.15
2022-12-03T12:22:48.296Z,48.50
2022-12-03T12:23:48.264Z,47.70
2022-12-03T12:24:48.299Z,47.21
2022-12-03T12:25:53.796Z,47.21
2022-12-03T12:26:50.291Z,47.05
2022-12-03T12:27:48.290Z,47.21
2022-12-03T12:28:48.230Z,48.66
2022-12-03T12:29:48.281Z,47.86
2022-12-03T12:30:48.274Z,48.34
2022-12-03T12:31:53.514Z,48.34
2022-12-03T12:32:50.325Z,47.70
2022-12-03T12:33:48.215Z,48.34
2022-12-03T12:34:48.194Z,49.31
2022-12-03T12:35:48.233Z,47.21
2022-12-03T12:36:48.275Z,47.05
2022-12-03T12:37:52.237Z,47.70
2022-12-03T12:38:49.182Z,48.02
2022-12-03T12:39:48.220Z,47.53
2022-12-03T12:40:48.212Z,47.53
2022-12-03T12:41:48.201Z,48.50
2022-12-03T12:42:48.203Z,47.86
2022-12-03T12:43:48.167Z,47.53
2022-12-03T12:44:48.171Z,48.50
2022-12-03T12:45:48.176Z,47.70
2022-12-03T12:46:48.866Z,47.37
2022-12-03T12:47:49.289Z,48.18
2022-12-03T12:48:48.131Z,47.53
2022-12-03T12:49:51.744Z,48.02
2022-12-03T12:50:49.117Z,48.02
2022-12-03T12:51:48.127Z,48.50
2022-12-03T12:52:48.150Z,47.37